sensor_id;sensor_type;location;lat;lon;timestamp;temperature;humidity
29363;DHT22;16349;53.672;10.014;2022-07-15T00:01:45;13.80;99.90
29363;DHT22;16349;53.672;10.014;2022-07-15T00:04:12;13.80;99.90
29363;DHT22;16349;53.672;10.014;2022-07-15T00:06:38;13.80;99.90
29363;DHT22;16349;53.672;10.014;2022-07-15T00:09:05;13.80;99.90
29363;DHT22;16349;53.672;10.014;2022-07-15T00:11:33;13.80;99.90
29363;DHT22;16349;53.672;10.014;2022-07-15T00:14:00;13.80;99.90
29363;DHT22;16349;53.672;10.014;2022-07-15T00:16:27;13.80;99.90
29363;DHT22;16349;53.672;10.014;2022-07-15T00:18:54;13.80;99.90
29363;DHT22;16349;53.672;10.014;2022-07-15T00:21:21;13.80;99.90
29363;DHT22;16349;53.672;10.014;2022-07-15T00:23:48;13.80;99.90
29363;DHT22;16349;53.672;10.014;2022-07-15T00:26:14;13.80;99.90
29363;DHT22;16349;53.672;10.014;2022-07-15T00:28:41;13.80;99.90
29363;DHT22;16349;53.672;10.014;2022-07-15T00:31:09;13.90;99.90
29363;DHT22;16349;53.672;10.014;2022-07-15T00:33:36;13.90;99.90
29363;DHT22;16349;53.672;10.014;2022-07-15T00:36:04;13.90;99.90
29363;DHT22;16349;53.672;10.014;2022-07-15T00:38:31;13.90;99.90
29363;DHT22;16349;53.672;10.014;2022-07-15T00:40:57;13.80;99.90
29363;DHT22;16349;53.672;10.014;2022-07-15T00:43:24;13.80;99.90
29363;DHT22;16349;53.672;10.014;2022-07-15T00:45:52;13.90;99.90
29363;DHT22;16349;53.672;10.014;2022-07-15T00:48:20;13.80;99.90
29363;DHT22;16349;53.672;10.014;2022-07-15T00:50:47;13.80;99.90
29363;DHT22;16349;53.672;10.014;2022-07-15T00:53:17;13.80;99.90
29363;DHT22;16349;53.672;10.014;2022-07-15T00:55:45;13.80;99.90
29363;DHT22;16349;53.672;10.014;2022-07-15T00:58:21;13.80;99.90
29363;DHT22;16349;53.672;10.014;2022-07-15T01:00:50;13.70;99.90
29363;DHT22;16349;53.672;10.014;2022-07-15T01:03:18;13.70;99.90
29363;DHT22;16349;53.672;10.014;2022-07-15T01:05:47;13.80;99.90
29363;DHT22;16349;53.672;10.014;2022-07-15T01:08:15;13.80;99.90
29363;DHT22;16349;53.672;10.014;2022-07-15T01:10:43;13.70;99.90
29363;DHT22;16349;53.672;10.014;2022-07-15T01:13:11;13.70;99.90
29363;DHT22;16349;53.672;10.014;2022-07-15T01:15:38;13.70;99.90
29363;DHT22;16349;53.672;10.014;2022-07-15T01:18:06;13.70;99.90
29363;DHT22;16349;53.672;10.014;2022-07-15T01:20:40;13.70;99.90
29363;DHT22;16349;53.672;10.014;2022-07-15T01:23:07;13.70;99.90
29363;DHT22;16349;53.672;10.014;2022-07-15T01:25:44;13.80;99.90
29363;DHT22;16349;53.672;10.014;2022-07-15T01:28:12;13.70;99.90
29363;DHT22;16349;53.672;10.014;2022-07-15T01:30:40;13.80;99.90
29363;DHT22;16349;53.672;10.014;2022-07-15T01:33:11;13.80;99.90
29363;DHT22;16349;53.672;10.014;2022-07-15T01:35:40;13.80;99.90
29363;DHT22;16349;53.672;10.014;2022-07-15T01:38:08;13.80;99.90
29363;DHT22;16349;53.672;10.014;2022-07-15T01:40:35;13.80;99.90
29363;DHT22;16349;53.672;10.014;2022-07-15T01:43:03;13.80;99.90
29363;DHT22;16349;53.672;10.014;2022-07-15T01:45:31;13.80;99.90
29363;DHT22;16349;53.672;10.014;2022-07-15T01:47:59;13.80;99.90
29363;DHT22;16349;53.672;10.014;2022-07-15T01:50:49;13.80;99.90
29363;DHT22;16349;53.672;10.014;2022-07-15T01:53:18;13.80;99.90
29363;DHT22;16349;53.672;10.014;2022-07-15T01:55:46;13.80;99.90
29363;DHT22;16349;53.672;10.014;2022-07-15T01:58:13;13.80;99.90
29363;DHT22;16349;53.672;10.014;2022-07-15T02:00:41;13.80;99.90
29363;DHT22;16349;53.672;10.014;2022-07-15T02:03:09;13.80;99.90
29363;DHT22;16349;53.672;10.014;2022-07-15T02:05:37;13.80;99.90
29363;DHT22;16349;53.672;10.014;2022-07-15T02:08:05;13.80;99.90
29363;DHT22;16349;53.672;10.014;2022-07-15T02:10:34;13.80;99.90
29363;DHT22;16349;53.672;10.014;2022-07-15T02:13:12;13.80;99.90
29363;DHT22;16349;53.672;10.014;2022-07-15T02:15:43;13.80;99.90
29363;DHT22;16349;53.672;10.014;2022-07-15T02:18:10;13.70;99.90
29363;DHT22;16349;53.672;10.014;2022-07-15T02:20:37;13.70;99.90
29363;DHT22;16349;53.672;10.014;2022-07-15T02:23:06;13.70;99.90
29363;DHT22;16349;53.672;10.014;2022-07-15T02:25:33;13.70;99.90
29363;DHT22;16349;53.672;10.014;2022-07-15T02:28:04;13.70;99.90
29363;DHT22;16349;53.672;10.014;2022-07-15T02:30:33;13.60;99.90
29363;DHT22;16349;53.672;10.014;2022-07-15T02:33:01;13.60;99.90
29363;DHT22;16349;53.672;10.014;2022-07-15T02:35:29;13.70;99.90
29363;DHT22;16349;53.672;10.014;2022-07-15T02:37:56;13.60;99.90
29363;DHT22;16349;53.672;10.014;2022-07-15T02:40:25;13.60;99.90
29363;DHT22;16349;53.672;10.014;2022-07-15T02:42:54;13.60;99.90
29363;DHT22;16349;53.672;10.014;2022-07-15T02:45:23;13.60;99.90
29363;DHT22;16349;53.672;10.014;2022-07-15T02:47:51;13.60;99.90
29363;DHT22;16349;53.672;10.014;2022-07-15T02:50:25;13.60;99.90
29363;DHT22;16349;53.672;10.014;2022-07-15T02:52:52;13.60;99.90
29363;DHT22;16349;53.672;10.014;2022-07-15T02:55:19;13.60;99.90
29363;DHT22;16349;53.672;10.014;2022-07-15T02:57:47;13.60;99.90
29363;DHT22;16349;53.672;10.014;2022-07-15T03:00:16;13.60;99.90
29363;DHT22;16349;53.672;10.014;2022-07-15T03:02:48;13.70;99.90
29363;DHT22;16349;53.672;10.014;2022-07-15T03:05:17;13.70;99.90
29363;DHT22;16349;53.672;10.014;2022-07-15T03:07:45;13.70;99.90
29363;DHT22;16349;53.672;10.014;2022-07-15T03:10:14;13.60;99.90
29363;DHT22;16349;53.672;10.014;2022-07-15T03:12:42;13.60;99.90
29363;DHT22;16349;53.672;10.014;2022-07-15T03:15:11;13.60;99.90
29363;DHT22;16349;53.672;10.014;2022-07-15T03:17:38;13.60;99.90
29363;DHT22;16349;53.672;10.014;2022-07-15T03:20:08;13.60;99.90
29363;DHT22;16349;53.672;10.014;2022-07-15T03:22:37;13.60;99.90
29363;DHT22;16349;53.672;10.014;2022-07-15T03:25:04;13.60;99.90
29363;DHT22;16349;53.672;10.014;2022-07-15T03:27:31;13.60;99.90
29363;DHT22;16349;53.672;10.014;2022-07-15T03:30:00;13.60;99.90
29363;DHT22;16349;53.672;10.014;2022-07-15T03:32:28;13.60;99.90
29363;DHT22;16349;53.672;10.014;2022-07-15T03:34:56;13.60;99.90
29363;DHT22;16349;53.672;10.014;2022-07-15T03:37:25;13.60;99.90
29363;DHT22;16349;53.672;10.014;2022-07-15T03:39:52;13.60;99.90
29363;DHT22;16349;53.672;10.014;2022-07-15T03:42:19;13.60;99.90
29363;DHT22;16349;53.672;10.014;2022-07-15T03:44:46;13.60;99.90
29363;DHT22;16349;53.672;10.014;2022-07-15T03:47:13;13.60;99.90
29363;DHT22;16349;53.672;10.014;2022-07-15T03:49:42;13.60;99.90
29363;DHT22;16349;53.672;10.014;2022-07-15T03:52:09;13.60;99.90
29363;DHT22;16349;53.672;10.014;2022-07-15T03:54:36;13.60;99.90
29363;DHT22;16349;53.672;10.014;2022-07-15T03:57:03;13.60;99.90
29363;DHT22;16349;53.672;10.014;2022-07-15T03:59:30;13.60;99.90
29363;DHT22;16349;53.672;10.014;2022-07-15T04:01:57;13.70;99.90
29363;DHT22;16349;53.672;10.014;2022-07-15T04:04:24;13.70;99.90
29363;DHT22;16349;53.672;10.014;2022-07-15T04:06:52;13.70;99.90
29363;DHT22;16349;53.672;10.014;2022-07-15T04:09:22;13.80;99.90
29363;DHT22;16349;53.672;10.014;2022-07-15T04:11:49;13.80;99.90
29363;DHT22;16349;53.672;10.014;2022-07-15T04:14:17;13.80;99.90
29363;DHT22;16349;53.672;10.014;2022-07-15T04:16:48;13.80;99.90
29363;DHT22;16349;53.672;10.014;2022-07-15T04:19:30;13.80;99.90
29363;DHT22;16349;53.672;10.014;2022-07-15T04:22:02;13.90;99.90
29363;DHT22;16349;53.672;10.014;2022-07-15T04:24:36;13.90;99.90
29363;DHT22;16349;53.672;10.014;2022-07-15T04:27:05;13.90;99.90
29363;DHT22;16349;53.672;10.014;2022-07-15T04:29:33;14.00;99.90
29363;DHT22;16349;53.672;10.014;2022-07-15T04:32:03;14.00;99.90
29363;DHT22;16349;53.672;10.014;2022-07-15T04:34:34;14.10;99.90
29363;DHT22;16349;53.672;10.014;2022-07-15T04:37:02;14.10;99.90
29363;DHT22;16349;53.672;10.014;2022-07-15T04:39:30;14.10;99.90
29363;DHT22;16349;53.672;10.014;2022-07-15T04:41:58;14.20;99.90
29363;DHT22;16349;53.672;10.014;2022-07-15T04:44:25;14.20;99.90
29363;DHT22;16349;53.672;10.014;2022-07-15T04:46:54;14.20;99.90
29363;DHT22;16349;53.672;10.014;2022-07-15T04:49:30;14.30;99.90
29363;DHT22;16349;53.672;10.014;2022-07-15T04:52:16;14.30;99.90
29363;DHT22;16349;53.672;10.014;2022-07-15T04:54:46;14.30;99.90
29363;DHT22;16349;53.672;10.014;2022-07-15T04:57:13;14.40;99.90
29363;DHT22;16349;53.672;10.014;2022-07-15T04:59:41;14.40;99.90
29363;DHT22;16349;53.672;10.014;2022-07-15T05:02:12;14.40;99.90
29363;DHT22;16349;53.672;10.014;2022-07-15T05:04:44;14.40;99.90
29363;DHT22;16349;53.672;10.014;2022-07-15T05:07:13;14.40;99.90
29363;DHT22;16349;53.672;10.014;2022-07-15T05:09:43;14.50;99.90
29363;DHT22;16349;53.672;10.014;2022-07-15T05:12:11;14.50;99.90
29363;DHT22;16349;53.672;10.014;2022-07-15T05:14:45;14.50;99.90
29363;DHT22;16349;53.672;10.014;2022-07-15T05:17:14;14.50;99.90
29363;DHT22;16349;53.672;10.014;2022-07-15T05:19:43;14.60;99.90
29363;DHT22;16349;53.672;10.014;2022-07-15T05:22:13;14.60;99.90
29363;DHT22;16349;53.672;10.014;2022-07-15T05:24:43;14.60;99.90
29363;DHT22;16349;53.672;10.014;2022-07-15T05:27:13;14.60;99.90
29363;DHT22;16349;53.672;10.014;2022-07-15T05:29:42;14.60;99.90
29363;DHT22;16349;53.672;10.014;2022-07-15T05:32:10;14.70;99.90
29363;DHT22;16349;53.672;10.014;2022-07-15T05:34:37;14.70;99.90
29363;DHT22;16349;53.672;10.014;2022-07-15T05:37:06;14.60;99.90
29363;DHT22;16349;53.672;10.014;2022-07-15T05:39:35;14.60;99.90
29363;DHT22;16349;53.672;10.014;2022-07-15T05:42:05;14.60;99.90
29363;DHT22;16349;53.672;10.014;2022-07-15T05:44:33;14.50;99.90
29363;DHT22;16349;53.672;10.014;2022-07-15T05:47:02;14.40;99.90
29363;DHT22;16349;53.672;10.014;2022-07-15T05:49:29;14.40;99.90
29363;DHT22;16349;53.672;10.014;2022-07-15T05:51:56;14.40;99.90
29363;DHT22;16349;53.672;10.014;2022-07-15T05:54:24;14.40;99.90
29363;DHT22;16349;53.672;10.014;2022-07-15T05:56:51;14.40;99.90
29363;DHT22;16349;53.672;10.014;2022-07-15T05:59:23;14.50;99.90
29363;DHT22;16349;53.672;10.014;2022-07-15T06:01:50;14.50;99.90
29363;DHT22;16349;53.672;10.014;2022-07-15T06:04:19;14.60;99.90
29363;DHT22;16349;53.672;10.014;2022-07-15T06:06:47;14.60;99.90
29363;DHT22;16349;53.672;10.014;2022-07-15T06:09:14;14.70;99.90
29363;DHT22;16349;53.672;10.014;2022-07-15T06:11:41;14.80;99.90
29363;DHT22;16349;53.672;10.014;2022-07-15T06:14:09;14.90;99.90
29363;DHT22;16349;53.672;10.014;2022-07-15T06:16:37;14.90;99.90
29363;DHT22;16349;53.672;10.014;2022-07-15T06:19:05;15.00;99.90
29363;DHT22;16349;53.672;10.014;2022-07-15T06:21:34;15.00;99.90
29363;DHT22;16349;53.672;10.014;2022-07-15T06:24:01;15.00;99.90
29363;DHT22;16349;53.672;10.014;2022-07-15T06:26:28;15.00;99.90
29363;DHT22;16349;53.672;10.014;2022-07-15T06:28:55;14.90;99.90
29363;DHT22;16349;53.672;10.014;2022-07-15T06:31:22;14.90;99.90
29363;DHT22;16349;53.672;10.014;2022-07-15T06:33:50;14.90;99.90
29363;DHT22;16349;53.672;10.014;2022-07-15T06:36:17;14.80;99.90
29363;DHT22;16349;53.672;10.014;2022-07-15T06:38:44;14.80;99.90
29363;DHT22;16349;53.672;10.014;2022-07-15T06:41:11;14.90;99.90
29363;DHT22;16349;53.672;10.014;2022-07-15T06:43:38;14.90;99.90
29363;DHT22;16349;53.672;10.014;2022-07-15T06:46:09;15.00;99.90
29363;DHT22;16349;53.672;10.014;2022-07-15T06:48:39;15.10;99.90
29363;DHT22;16349;53.672;10.014;2022-07-15T06:51:08;15.20;99.90
29363;DHT22;16349;53.672;10.014;2022-07-15T06:53:35;15.30;99.90
29363;DHT22;16349;53.672;10.014;2022-07-15T06:56:02;15.30;99.90
29363;DHT22;16349;53.672;10.014;2022-07-15T06:58:29;15.20;99.90
29363;DHT22;16349;53.672;10.014;2022-07-15T07:00:57;15.30;99.90
29363;DHT22;16349;53.672;10.014;2022-07-15T07:03:24;15.40;99.90
29363;DHT22;16349;53.672;10.014;2022-07-15T07:05:51;15.40;99.90
29363;DHT22;16349;53.672;10.014;2022-07-15T07:08:19;15.40;99.90
29363;DHT22;16349;53.672;10.014;2022-07-15T07:10:47;15.40;99.90
29363;DHT22;16349;53.672;10.014;2022-07-15T07:13:13;15.40;99.90
29363;DHT22;16349;53.672;10.014;2022-07-15T07:15:40;15.50;99.90
29363;DHT22;16349;53.672;10.014;2022-07-15T07:18:07;15.50;99.90
29363;DHT22;16349;53.672;10.014;2022-07-15T07:20:36;15.50;99.90
29363;DHT22;16349;53.672;10.014;2022-07-15T07:23:02;15.70;99.90
29363;DHT22;16349;53.672;10.014;2022-07-15T07:25:30;15.80;99.90
29363;DHT22;16349;53.672;10.014;2022-07-15T07:27:57;15.80;99.90
29363;DHT22;16349;53.672;10.014;2022-07-15T07:30:29;15.80;99.90
29363;DHT22;16349;53.672;10.014;2022-07-15T07:32:55;15.90;99.90
29363;DHT22;16349;53.672;10.014;2022-07-15T07:35:22;15.90;99.90
29363;DHT22;16349;53.672;10.014;2022-07-15T07:37:50;15.90;99.90
29363;DHT22;16349;53.672;10.014;2022-07-15T07:40:17;16.00;99.90
29363;DHT22;16349;53.672;10.014;2022-07-15T07:42:45;16.10;99.90
29363;DHT22;16349;53.672;10.014;2022-07-15T07:45:11;16.10;99.90
29363;DHT22;16349;53.672;10.014;2022-07-15T07:47:38;16.10;99.90
29363;DHT22;16349;53.672;10.014;2022-07-15T07:50:07;16.30;99.90
29363;DHT22;16349;53.672;10.014;2022-07-15T07:52:34;16.30;99.90
29363;DHT22;16349;53.672;10.014;2022-07-15T07:55:01;16.20;99.90
29363;DHT22;16349;53.672;10.014;2022-07-15T07:57:27;16.00;99.90
29363;DHT22;16349;53.672;10.014;2022-07-15T07:59:56;16.00;99.90
29363;DHT22;16349;53.672;10.014;2022-07-15T08:02:22;16.00;99.90
29363;DHT22;16349;53.672;10.014;2022-07-15T08:04:49;15.90;99.90
29363;DHT22;16349;53.672;10.014;2022-07-15T08:07:17;15.90;99.90
29363;DHT22;16349;53.672;10.014;2022-07-15T08:09:44;15.90;99.90
29363;DHT22;16349;53.672;10.014;2022-07-15T08:12:11;15.90;99.90
29363;DHT22;16349;53.672;10.014;2022-07-15T08:14:38;15.90;99.90
29363;DHT22;16349;53.672;10.014;2022-07-15T08:17:06;15.90;99.90
29363;DHT22;16349;53.672;10.014;2022-07-15T08:19:33;16.00;99.90
29363;DHT22;16349;53.672;10.014;2022-07-15T08:22:00;16.00;99.90
29363;DHT22;16349;53.672;10.014;2022-07-15T08:24:27;15.90;99.90
29363;DHT22;16349;53.672;10.014;2022-07-15T08:26:54;15.90;99.90
29363;DHT22;16349;53.672;10.014;2022-07-15T08:29:21;15.90;99.90
29363;DHT22;16349;53.672;10.014;2022-07-15T08:31:48;15.90;99.90
29363;DHT22;16349;53.672;10.014;2022-07-15T08:34:16;15.90;99.90
29363;DHT22;16349;53.672;10.014;2022-07-15T08:36:43;16.00;99.90
29363;DHT22;16349;53.672;10.014;2022-07-15T08:39:10;16.10;99.90
29363;DHT22;16349;53.672;10.014;2022-07-15T08:41:38;16.20;99.90
29363;DHT22;16349;53.672;10.014;2022-07-15T08:44:05;16.40;99.90
29363;DHT22;16349;53.672;10.014;2022-07-15T08:46:33;16.60;99.90
29363;DHT22;16349;53.672;10.014;2022-07-15T08:49:04;16.60;99.90
29363;DHT22;16349;53.672;10.014;2022-07-15T08:51:34;16.70;99.90
29363;DHT22;16349;53.672;10.014;2022-07-15T08:54:02;16.90;99.90
29363;DHT22;16349;53.672;10.014;2022-07-15T08:56:29;17.00;99.90
29363;DHT22;16349;53.672;10.014;2022-07-15T08:58:57;16.90;99.90
29363;DHT22;16349;53.672;10.014;2022-07-15T09:01:24;16.70;99.90
29363;DHT22;16349;53.672;10.014;2022-07-15T09:03:51;16.30;99.90
29363;DHT22;16349;53.672;10.014;2022-07-15T09:06:34;16.00;99.90
29363;DHT22;16349;53.672;10.014;2022-07-15T09:09:30;15.70;99.90
29363;DHT22;16349;53.672;10.014;2022-07-15T09:11:59;15.50;99.90
29363;DHT22;16349;53.672;10.014;2022-07-15T09:14:29;15.50;99.90
29363;DHT22;16349;53.672;10.014;2022-07-15T09:17:21;15.50;99.90
29363;DHT22;16349;53.672;10.014;2022-07-15T09:19:59;15.70;99.90
29363;DHT22;16349;53.672;10.014;2022-07-15T09:22:30;15.80;99.90
29363;DHT22;16349;53.672;10.014;2022-07-15T09:25:02;16.00;99.90
29363;DHT22;16349;53.672;10.014;2022-07-15T09:27:31;16.10;99.90
29363;DHT22;16349;53.672;10.014;2022-07-15T09:30:12;16.20;99.90
29363;DHT22;16349;53.672;10.014;2022-07-15T09:32:58;16.30;99.90
29363;DHT22;16349;53.672;10.014;2022-07-15T09:35:43;16.30;99.90
29363;DHT22;16349;53.672;10.014;2022-07-15T09:38:38;16.40;99.90
29363;DHT22;16349;53.672;10.014;2022-07-15T09:41:13;16.60;99.90
29363;DHT22;16349;53.672;10.014;2022-07-15T09:43:51;16.80;99.90
29363;DHT22;16349;53.672;10.014;2022-07-15T09:46:20;16.90;99.90
29363;DHT22;16349;53.672;10.014;2022-07-15T09:48:49;17.00;99.90
29363;DHT22;16349;53.672;10.014;2022-07-15T09:51:16;17.10;99.90
29363;DHT22;16349;53.672;10.014;2022-07-15T09:53:45;17.10;99.90
29363;DHT22;16349;53.672;10.014;2022-07-15T09:56:14;17.30;99.90
29363;DHT22;16349;53.672;10.014;2022-07-15T09:58:42;17.50;99.90
29363;DHT22;16349;53.672;10.014;2022-07-15T10:01:11;17.80;99.90
29363;DHT22;16349;53.672;10.014;2022-07-15T10:03:39;17.90;99.90
29363;DHT22;16349;53.672;10.014;2022-07-15T10:06:06;17.80;99.90
29363;DHT22;16349;53.672;10.014;2022-07-15T10:08:34;17.60;99.90
29363;DHT22;16349;53.672;10.014;2022-07-15T10:11:08;17.60;99.90
29363;DHT22;16349;53.672;10.014;2022-07-15T10:13:59;17.50;99.90
29363;DHT22;16349;53.672;10.014;2022-07-15T10:19:23;17.50;99.90
29363;DHT22;16349;53.672;10.014;2022-07-15T10:22:03;17.60;99.90
29363;DHT22;16349;53.672;10.014;2022-07-15T10:24:44;17.70;99.90
29363;DHT22;16349;53.672;10.014;2022-07-15T10:27:35;17.70;99.90
29363;DHT22;16349;53.672;10.014;2022-07-15T10:30:06;17.90;99.90
29363;DHT22;16349;53.672;10.014;2022-07-15T10:33:11;18.10;99.90
29363;DHT22;16349;53.672;10.014;2022-07-15T10:35:42;18.10;99.90
29363;DHT22;16349;53.672;10.014;2022-07-15T10:38:29;18.00;99.90
29363;DHT22;16349;53.672;10.014;2022-07-15T10:40:59;18.00;99.90
29363;DHT22;16349;53.672;10.014;2022-07-15T10:43:45;18.10;99.90
29363;DHT22;16349;53.672;10.014;2022-07-15T10:46:25;18.10;99.90
29363;DHT22;16349;53.672;10.014;2022-07-15T10:49:26;18.30;99.90
29363;DHT22;16349;53.672;10.014;2022-07-15T10:51:54;18.50;99.10
29363;DHT22;16349;53.672;10.014;2022-07-15T10:54:41;18.50;99.80
29363;DHT22;16349;53.672;10.014;2022-07-15T10:57:09;18.60;98.70
29363;DHT22;16349;53.672;10.014;2022-07-15T10:59:39;18.60;99.00
29363;DHT22;16349;53.672;10.014;2022-07-15T11:02:15;18.50;98.10
29363;DHT22;16349;53.672;10.014;2022-07-15T11:04:43;18.20;98.90
29363;DHT22;16349;53.672;10.014;2022-07-15T11:07:30;18.10;99.10
29363;DHT22;16349;53.672;10.014;2022-07-15T11:10:15;18.00;99.00
29363;DHT22;16349;53.672;10.014;2022-07-15T11:13:05;17.90;99.60
29363;DHT22;16349;53.672;10.014;2022-07-15T11:15:33;17.90;99.70
29363;DHT22;16349;53.672;10.014;2022-07-15T11:18:01;17.90;99.90
29363;DHT22;16349;53.672;10.014;2022-07-15T11:20:34;18.00;99.90
29363;DHT22;16349;53.672;10.014;2022-07-15T11:23:02;18.20;99.90
29363;DHT22;16349;53.672;10.014;2022-07-15T11:25:32;18.30;99.90
29363;DHT22;16349;53.672;10.014;2022-07-15T11:28:05;18.40;99.90
29363;DHT22;16349;53.672;10.014;2022-07-15T11:30:38;18.40;99.80
29363;DHT22;16349;53.672;10.014;2022-07-15T11:33:07;18.50;99.10
29363;DHT22;16349;53.672;10.014;2022-07-15T11:35:46;18.40;99.60
29363;DHT22;16349;53.672;10.014;2022-07-15T11:38:13;18.50;99.70
29363;DHT22;16349;53.672;10.014;2022-07-15T11:40:45;18.70;99.50
29363;DHT22;16349;53.672;10.014;2022-07-15T11:43:30;18.90;99.30
29363;DHT22;16349;53.672;10.014;2022-07-15T11:46:16;18.80;99.10
29363;DHT22;16349;53.672;10.014;2022-07-15T11:48:43;18.80;99.20
29363;DHT22;16349;53.672;10.014;2022-07-15T11:51:11;18.80;99.10
29363;DHT22;16349;53.672;10.014;2022-07-15T11:53:40;18.80;98.80
29363;DHT22;16349;53.672;10.014;2022-07-15T11:56:09;18.70;98.90
29363;DHT22;16349;53.672;10.014;2022-07-15T11:58:37;18.60;99.10
29363;DHT22;16349;53.672;10.014;2022-07-15T12:01:06;18.50;99.30
29363;DHT22;16349;53.672;10.014;2022-07-15T12:03:37;18.70;99.00
29363;DHT22;16349;53.672;10.014;2022-07-15T12:06:08;18.80;98.40
29363;DHT22;16349;53.672;10.014;2022-07-15T12:08:38;19.00;98.20
29363;DHT22;16349;53.672;10.014;2022-07-15T12:11:11;19.20;98.30
29363;DHT22;16349;53.672;10.014;2022-07-15T12:13:43;19.40;98.20
29363;DHT22;16349;53.672;10.014;2022-07-15T12:16:11;19.30;98.20
29363;DHT22;16349;53.672;10.014;2022-07-15T12:18:40;19.20;98.50
29363;DHT22;16349;53.672;10.014;2022-07-15T12:21:07;19.00;98.60
29363;DHT22;16349;53.672;10.014;2022-07-15T12:23:34;18.90;98.70
29363;DHT22;16349;53.672;10.014;2022-07-15T12:26:03;18.90;98.70
29363;DHT22;16349;53.672;10.014;2022-07-15T12:28:30;19.00;98.50
29363;DHT22;16349;53.672;10.014;2022-07-15T12:30:57;19.00;98.30
29363;DHT22;16349;53.672;10.014;2022-07-15T12:33:25;19.00;97.70
29363;DHT22;16349;53.672;10.014;2022-07-15T12:36:16;19.00;97.40
29363;DHT22;16349;53.672;10.014;2022-07-15T12:38:44;19.10;96.90
29363;DHT22;16349;53.672;10.014;2022-07-15T12:41:22;19.40;96.80
29363;DHT22;16349;53.672;10.014;2022-07-15T12:43:52;19.60;96.60
29363;DHT22;16349;53.672;10.014;2022-07-15T12:46:20;19.70;96.30
29363;DHT22;16349;53.672;10.014;2022-07-15T12:48:48;19.80;96.00
29363;DHT22;16349;53.672;10.014;2022-07-15T12:51:21;19.80;96.00
29363;DHT22;16349;53.672;10.014;2022-07-15T12:53:49;20.00;95.90
29363;DHT22;16349;53.672;10.014;2022-07-15T12:56:16;20.30;95.00
29363;DHT22;16349;53.672;10.014;2022-07-15T12:58:49;20.20;94.10
29363;DHT22;16349;53.672;10.014;2022-07-15T13:01:17;20.10;94.60
29363;DHT22;16349;53.672;10.014;2022-07-15T13:03:44;20.50;95.60
29363;DHT22;16349;53.672;10.014;2022-07-15T13:06:11;20.70;94.30
29363;DHT22;16349;53.672;10.014;2022-07-15T13:08:41;20.60;93.40
29363;DHT22;16349;53.672;10.014;2022-07-15T13:11:08;20.70;93.00
29363;DHT22;16349;53.672;10.014;2022-07-15T13:16:04;21.80;91.80
29363;DHT22;16349;53.672;10.014;2022-07-15T13:18:32;22.20;91.20
29363;DHT22;16349;53.672;10.014;2022-07-15T13:20:59;22.20;90.90
29363;DHT22;16349;53.672;10.014;2022-07-15T13:23:26;21.80;90.70
29363;DHT22;16349;53.672;10.014;2022-07-15T13:25:55;21.70;90.60
29363;DHT22;16349;53.672;10.014;2022-07-15T13:28:23;21.30;90.40
29363;DHT22;16349;53.672;10.014;2022-07-15T13:30:50;21.20;90.30
29363;DHT22;16349;53.672;10.014;2022-07-15T13:33:17;21.50;90.00
29363;DHT22;16349;53.672;10.014;2022-07-15T13:35:45;22.00;88.80
29363;DHT22;16349;53.672;10.014;2022-07-15T13:38:12;22.30;86.30
29363;DHT22;16349;53.672;10.014;2022-07-15T13:40:40;22.40;86.30
29363;DHT22;16349;53.672;10.014;2022-07-15T13:43:09;22.50;85.80
29363;DHT22;16349;53.672;10.014;2022-07-15T13:45:36;22.80;84.50
29363;DHT22;16349;53.672;10.014;2022-07-15T13:48:04;22.40;84.70
29363;DHT22;16349;53.672;10.014;2022-07-15T13:50:31;22.70;85.50
29363;DHT22;16349;53.672;10.014;2022-07-15T13:53:15;23.20;84.90
29363;DHT22;16349;53.672;10.014;2022-07-15T13:55:42;23.30;83.40
29363;DHT22;16349;53.672;10.014;2022-07-15T13:58:10;22.90;83.10
29363;DHT22;16349;53.672;10.014;2022-07-15T14:00:37;22.20;82.80
29363;DHT22;16349;53.672;10.014;2022-07-15T14:08:00;21.60;85.10
29363;DHT22;16349;53.672;10.014;2022-07-15T14:10:28;21.80;84.60
29363;DHT22;16349;53.672;10.014;2022-07-15T14:12:54;22.00;84.40
29363;DHT22;16349;53.672;10.014;2022-07-15T14:15:23;22.20;82.20
29363;DHT22;16349;53.672;10.014;2022-07-15T14:17:50;22.50;81.10
29363;DHT22;16349;53.672;10.014;2022-07-15T14:20:17;22.70;80.20
29363;DHT22;16349;53.672;10.014;2022-07-15T14:22:44;22.70;80.60
29363;DHT22;16349;53.672;10.014;2022-07-15T14:25:10;23.00;79.10
29363;DHT22;16349;53.672;10.014;2022-07-15T14:27:37;23.10;78.30
29363;DHT22;16349;53.672;10.014;2022-07-15T14:30:06;23.20;77.70
29363;DHT22;16349;53.672;10.014;2022-07-15T14:32:34;23.20;76.20
29363;DHT22;16349;53.672;10.014;2022-07-15T14:35:01;23.10;75.30
29363;DHT22;16349;53.672;10.014;2022-07-15T14:37:29;23.30;75.90
29363;DHT22;16349;53.672;10.014;2022-07-15T14:39:56;23.60;74.70
29363;DHT22;16349;53.672;10.014;2022-07-15T14:42:23;24.00;73.50
29363;DHT22;16349;53.672;10.014;2022-07-15T14:44:50;24.10;71.60
29363;DHT22;16349;53.672;10.014;2022-07-15T14:47:17;24.40;70.70
29363;DHT22;16349;53.672;10.014;2022-07-15T14:49:46;24.40;69.40
29363;DHT22;16349;53.672;10.014;2022-07-15T14:52:13;24.20;68.90
29363;DHT22;16349;53.672;10.014;2022-07-15T14:54:40;23.70;70.70
29363;DHT22;16349;53.672;10.014;2022-07-15T14:57:07;23.40;72.00
29363;DHT22;16349;53.672;10.014;2022-07-15T14:59:34;23.70;72.00
29363;DHT22;16349;53.672;10.014;2022-07-15T15:02:03;23.60;68.80
29363;DHT22;16349;53.672;10.014;2022-07-15T15:04:30;23.50;68.90
29363;DHT22;16349;53.672;10.014;2022-07-15T15:06:58;23.60;68.20
29363;DHT22;16349;53.672;10.014;2022-07-15T15:09:25;23.70;66.60
29363;DHT22;16349;53.672;10.014;2022-07-15T15:11:52;23.60;66.70
29363;DHT22;16349;53.672;10.014;2022-07-15T15:14:19;23.20;67.00
29363;DHT22;16349;53.672;10.014;2022-07-15T15:16:47;22.30;68.70
29363;DHT22;16349;53.672;10.014;2022-07-15T15:19:13;21.70;70.70
29363;DHT22;16349;53.672;10.014;2022-07-15T15:21:40;22.20;71.20
29363;DHT22;16349;53.672;10.014;2022-07-15T15:24:08;21.80;71.30
29363;DHT22;16349;53.672;10.014;2022-07-15T15:26:35;21.10;72.90
29363;DHT22;16349;53.672;10.014;2022-07-15T15:29:02;21.70;72.40
29363;DHT22;16349;53.672;10.014;2022-07-15T15:31:29;22.00;71.00
29363;DHT22;16349;53.672;10.014;2022-07-15T15:33:56;22.10;70.00
29363;DHT22;16349;53.672;10.014;2022-07-15T15:36:23;21.80;71.60
29363;DHT22;16349;53.672;10.014;2022-07-15T15:38:50;22.40;70.60
29363;DHT22;16349;53.672;10.014;2022-07-15T15:41:19;22.70;70.10